Time;durP1;ratioP1;P1;durP2;ratioP2;P2;SDS_P1;SDS_P2;PMS_P1;PMS_P2;Temp;Humidity;BMP_temperature;BMP_pressure;BME280_temperature;BME280_humidity;BME280_pressure;Samples;Min_cycle;Max_cycle;Signal;HPM_P1;HPM_P2
2023/01/03 00:01:38;;;;;;;;;;;;;;;;;;4687534;28;20330;-67
2023/01/03 00:04:04;;;;;;;;;;;;;;;;;;4686353;28;20300;-67
2023/01/03 00:06:30;;;;;;;;;;;;;;;;;;4685582;28;20322;-68
2023/01/03 00:08:56;;;;;;;;;;;;;;;;;;4687105;28;20302;-68
2023/01/03 00:12:22;;;;;;;;;;;;;;;;;;4687943;28;20680;-67
2023/01/03 00:14:07;;;;;;;;;;;;;;;;;;4686288;28;20320;-68
2023/01/03 00:16:33;;;;;;;;;;;;;;;;;;4685922;28;20292;-68
2023/01/03 00:18:59;;;;;;;;;;;;;;;;;;4689079;28;20647;-68
2023/01/03 00:21:25;;;;;;;;;;;;;;;;;;4687329;28;20272;-67
2023/01/03 00:23:51;;;;;;;;;;;;;;;;;;4686720;28;20392;-67
2023/01/03 00:26:17;;;;;;;;;;;;;;;;;;4687702;28;20384;-67
2023/01/03 00:28:43;;;;;;;;;;;;;;;;;;4687338;28;20704;-67
2023/01/03 00:31:09;;;;;;;;;;;;;;;;;;4686490;28;20291;-67
2023/01/03 00:33:35;;;;;;;;;;;;;;;;;;4686423;28;20255;-66
2023/01/03 00:36:00;;;;;;;;;;;;;;;;;;4686254;28;20695;-67
2023/01/03 00:38:26;;;;;;;;;;;;;;;;;;4686117;28;20324;-66
2023/01/03 00:40:52;;;;;;;;;;;;;;;;;;4687029;28;20260;-67
2023/01/03 00:43:27;;;;;;;;;;;;;;;;;;4687081;28;20281;-66
2023/01/03 00:45:53;;;;;;;;;;;;;;;;;;4687858;28;20425;-68
2023/01/03 00:48:19;;;;;;;;;;;;;;;;;;4687683;28;20821;-66
2023/01/03 00:50:45;;;;;;;;;;;;;;;;;;4686742;28;20441;-68
2023/01/03 00:53:11;;;;;;;;;;;;;;;;;;4687179;28;20298;-67
2023/01/03 00:55:37;;;;;;;;;;;;;;;;;;4687883;28;20421;-67
2023/01/03 00:58:03;;;;;;;;;;;;;;;;;;4688321;28;20235;-67
2023/01/03 01:00:29;;;;;;;;;;;;;;;;;;4688073;28;20312;-67
2023/01/03 01:02:54;;;;;;;;;;;;;;;;;;4687855;28;20383;-67
2023/01/03 01:05:20;;;;;;;;;;;;;;;;;;4684713;28;20833;-67
2023/01/03 01:07:46;;;;;;;;;;;;;;;;;;4688112;28;20300;-67
2023/01/03 01:10:12;;;;;;;;;;;;;;;;;;4688791;28;20863;-67
2023/01/03 01:12:38;;;;;;;;;;;;;;;;;;4688679;28;20277;-67
2023/01/03 01:15:04;;;;;;;;;;;;;;;;;;4689066;28;20293;-67
2023/01/03 01:17:30;;;;;;;;;;;;;;;;;;4689242;28;20301;-67
2023/01/03 01:19:56;;;;;;;;;;;;;;;;;;4689387;28;20257;-67
2023/01/03 01:22:22;;;;;;;;;;;;;;;;;;4688165;28;20366;-67
2023/01/03 01:24:47;;;;;;;;;;;;;;;;;;4689157;28;20341;-68
2023/01/03 01:27:13;;;;;;;;;;;;;;;;;;4689033;28;20241;-67
2023/01/03 01:29:39;;;;;;;;;;;;;;;;;;4688886;28;20756;-67
2023/01/03 01:32:05;;;;;;;;;;;;;;;;;;4689055;28;20271;-67
2023/01/03 01:34:31;;;;;;;;;;;;;;;;;;4688478;28;20757;-67
2023/01/03 01:36:57;;;;;;;;;;;;;;;;;;4687650;28;20266;-67
2023/01/03 01:39:23;;;;;;;;;;;;;;;;;;4688640;28;20263;-67
2023/01/03 01:44:36;;;;;;;;;;;;;;;;;;4688758;28;20241;-67
2023/01/03 01:47:02;;;;;;;;;;;;;;;;;;4683434;28;20767;-67
2023/01/03 01:49:28;;;;;;;;;;;;;;;;;;4689086;28;20236;-68
2023/01/03 01:51:54;;;;;;;;;;;;;;;;;;4689972;28;20245;-67
2023/01/03 01:54:20;;;;;;;;;;;;;;;;;;4689482;28;21118;-68
2023/01/03 01:56:46;;;;;;;;;;;;;;;;;;4689463;28;21148;-67
2023/01/03 01:59:12;;;;;;;;;;;;;;;;;;4688723;28;20274;-67
2023/01/03 02:01:37;;;;;;;;;;;;;;;;;;4687847;28;20229;-68
2023/01/03 02:04:03;;;;;;;;;;;;;;;;;;4687456;28;20274;-68
2023/01/03 02:06:29;;;;;;;;;;;;;;;;;;4688264;28;20289;-67
2023/01/03 02:08:55;;;;;;;;;;;;;;;;;;4688038;28;20330;-67
2023/01/03 02:11:21;;;;;;;;;;;;;;;;;;4689323;28;20301;-67
2023/01/03 02:13:47;;;;;;;;;;;;;;;;;;4689336;28;20237;-67
2023/01/03 02:16:13;;;;;;;;;;;;;;;;;;4689597;28;20263;-67
2023/01/03 02:18:39;;;;;;;;;;;;;;;;;;4689441;28;20256;-67
2023/01/03 02:21:05;;;;;;;;;;;;;;;;;;4687731;28;20313;-68
2023/01/03 02:23:30;;;;;;;;;;;;;;;;;;4690623;28;20988;-67
2023/01/03 02:25:56;;;;;;;;;;;;;;;;;;4691855;28;20318;-68
2023/01/03 02:28:22;;;;;;;;;;;;;;;;;;4689594;28;20367;-68
2023/01/03 02:30:48;;;;;;;;;;;;;;;;;;4690288;28;20240;-69
2023/01/03 02:33:14;;;;;;;;;;;;;;;;;;4689099;28;20276;-68
2023/01/03 02:35:41;;;;;;;;;;;;;;;;;;4688601;28;20360;-68
2023/01/03 02:38:07;;;;;;;;;;;;;;;;;;4690487;28;20775;-68
2023/01/03 02:40:33;;;;;;;;;;;;;;;;;;4690858;28;20252;-69
2023/01/03 02:43:02;;;;;;;;;;;;;;;;;;4690952;28;20236;-68
2023/01/03 02:45:28;;;;;;;;;;;;;;;;;;4691765;28;20262;-68
2023/01/03 02:47:54;;;;;;;;;;;;;;;;;;4692376;28;20756;-68
2023/01/03 02:50:19;;;;;;;;;;;;;;;;;;4691564;28;20272;-68
2023/01/03 02:52:45;;;;;;;;;;;;;;;;;;4691686;28;20624;-67
2023/01/03 02:55:11;;;;;;;;;;;;;;;;;;4691608;28;20403;-68
2023/01/03 02:57:37;;;;;;;;;;;;;;;;;;4684898;28;20377;-68
2023/01/03 03:00:06;;;;;;;;;;;;;;;;;;4691048;28;20284;-68
2023/01/03 03:02:32;;;;;;;;;;;;;;;;;;4689609;28;20277;-68
2023/01/03 03:04:58;;;;;;;;;;;;;;;;;;4689750;28;20285;-68
2023/01/03 03:07:24;;;;;;;;;;;;;;;;;;4689127;28;20315;-68
2023/01/03 03:15:21;;;;;;;;;;;;;;;;;;4689426;28;20273;-68
2023/01/03 03:17:47;;;;;;;;;;;;;;;;;;4689073;28;20327;-68
2023/01/03 03:25:42;;;;;;;;;;;;;;;;;;4689405;28;20409;-68
2023/01/03 03:30:53;;;;;;;;;;;;;;;;;;4691862;28;20329;-68
2023/01/03 03:33:18;;;;;;;;;;;;;;;;;;4690852;28;20244;-67
2023/01/03 03:35:44;;;;;;;;;;;;;;;;;;4691551;28;20340;-67
2023/01/03 03:38:10;;;;;;;;;;;;;;;;;;4694477;28;20299;-68
2023/01/03 03:46:06;;;;;;;;;;;;;;;;;;4690996;28;20338;-67
2023/01/03 03:49:36;;;;;;;;;;;;;;;;;;4691640;28;20311;-67
2023/01/03 03:51:17;;;;;;;;;;;;;;;;;;4692167;28;20270;-67
2023/01/03 03:53:43;;;;;;;;;;;;;;;;;;4692812;28;20665;-67
2023/01/03 03:56:09;;;;;;;;;;;;;;;;;;4693066;28;20274;-67
2023/01/03 03:58:35;;;;;;;;;;;;;;;;;;4692112;28;20315;-67
2023/01/03 04:01:01;;;;;;;;;;;;;;;;;;4691410;28;20294;-67
2023/01/03 04:03:27;;;;;;;;;;;;;;;;;;4691374;28;20290;-67
2023/01/03 04:05:53;;;;;;;;;;;;;;;;;;4689883;28;20282;-67
2023/01/03 04:08:19;;;;;;;;;;;;;;;;;;4690477;28;20318;-67
2023/01/03 04:10:44;;;;;;;;;;;;;;;;;;4690916;28;20276;-67
2023/01/03 04:13:10;;;;;;;;;;;;;;;;;;4682387;28;20342;-67
2023/01/03 04:15:36;;;;;;;;;;;;;;;;;;4689916;28;20302;-67
2023/01/03 04:18:02;;;;;;;;;;;;;;;;;;4692400;28;20330;-68
2023/01/03 04:20:28;;;;;;;;;;;;;;;;;;4690346;28;20324;-66
2023/01/03 04:22:54;;;;;;;;;;;;;;;;;;4688500;28;20812;-68
2023/01/03 04:25:20;;;;;;;;;;;;;;;;;;4688919;28;20234;-67
2023/01/03 04:27:46;;;;;;;;;;;;;;;;;;4688680;28;20306;-67
2023/01/03 04:30:12;;;;;;;;;;;;;;;;;;4688852;28;20317;-67
2023/01/03 04:32:38;;;;;;;;;;;;;;;;;;4689853;28;20237;-67
2023/01/03 04:35:04;;;;;;;;;;;;;;;;;;4689355;28;20748;-67
2023/01/03 04:37:30;;;;;;;;;;;;;;;;;;4688316;28;20345;-67
2023/01/03 04:39:55;;;;;;;;;;;;;;;;;;4687913;28;21018;-67
2023/01/03 04:45:06;;;;;;;;;;;;;;;;;;4685682;28;20357;-67
2023/01/03 04:47:32;;;;;;;;;;;;;;;;;;4692352;28;20268;-66
2023/01/03 04:49:58;;;;;;;;;;;;;;;;;;4692222;28;20295;-67
2023/01/03 04:52:24;;;;;;;;;;;;;;;;;;4692536;28;20349;-67
2023/01/03 04:54:50;;;;;;;;;;;;;;;;;;4691768;28;20681;-67
2023/01/03 04:57:15;;;;;;;;;;;;;;;;;;4691692;28;20264;-67
2023/01/03 04:59:41;;;;;;;;;;;;;;;;;;4690935;28;20853;-67
2023/01/03 05:02:07;;;;;;;;;;;;;;;;;;4692968;28;20242;-67
2023/01/03 05:04:33;;;;;;;;;;;;;;;;;;4689779;28;20279;-66
2023/01/03 05:06:59;;;;;;;;;;;;;;;;;;4689432;28;20343;-67
2023/01/03 05:09:26;;;;;;;;;;;;;;;;;;4687996;28;20333;-68
2023/01/03 05:11:52;;;;;;;;;;;;;;;;;;4688277;28;20367;-68
2023/01/03 05:14:17;;;;;;;;;;;;;;;;;;4688149;28;20886;-69
2023/01/03 05:16:43;;;;;;;;;;;;;;;;;;4691047;28;20275;-68
2023/01/03 05:19:09;;;;;;;;;;;;;;;;;;4688472;28;20335;-68
2023/01/03 05:27:05;;;;;;;;;;;;;;;;;;4685066;28;21069;-68
2023/01/03 05:29:31;;;;;;;;;;;;;;;;;;4683961;28;20372;-68
2023/01/03 05:31:57;;;;;;;;;;;;;;;;;;4685314;28;20330;-69
2023/01/03 05:34:22;;;;;;;;;;;;;;;;;;4685641;28;20289;-67
2023/01/03 05:36:48;;;;;;;;;;;;;;;;;;4688352;28;20247;-67
2023/01/03 05:39:14;;;;;;;;;;;;;;;;;;4688570;28;20330;-68
2023/01/03 05:41:58;;;;;;;;;;;;;;;;;;4688191;28;20284;-68
2023/01/03 05:44:24;;;;;;;;;;;;;;;;;;4689274;28;20298;-67
2023/01/03 05:46:50;;;;;;;;;;;;;;;;;;4687761;28;20367;-68
2023/01/03 05:49:16;;;;;;;;;;;;;;;;;;4682178;28;20407;-68
2023/01/03 05:51:42;;;;;;;;;;;;;;;;;;4688660;28;20253;-68
2023/01/03 05:54:08;;;;;;;;;;;;;;;;;;4687273;28;20288;-68
2023/01/03 05:56:34;;;;;;;;;;;;;;;;;;4685954;28;20847;-67
2023/01/03 05:58:59;;;;;;;;;;;;;;;;;;4686573;28;20247;-66
2023/01/03 06:01:27;;;;;;;;;;;;;;;;;;4688722;28;20299;-67
2023/01/03 06:03:52;;;;;;;;;;;;;;;;;;4686018;28;20332;-68
2023/01/03 06:06:18;;;;;;;;;;;;;;;;;;4684676;28;20284;-67
2023/01/03 06:09:09;;;;;;;;;;;;;;;;;;4793726;27;20302;-67
2023/01/03 06:11:34;;;;;;;;;;;;;;;;;;4794866;27;20600;-68
2023/01/03 06:14:00;;;;;;;;;;;;;;;;;;4794583;27;20239;-67
2023/01/03 06:19:11;;;;;;;;;;;;;;;;;;4795022;27;20304;-68
2023/01/03 06:21:37;;;;;;;;;;;;;;;;;;4798196;27;20286;-68
2023/01/03 06:24:03;;;;;;;;;;;;;;;;;;4796918;27;20240;-68
2023/01/03 06:26:29;;;;;;;;;;;;;;;;;;4795678;27;20316;-67
2023/01/03 06:28:55;;;;;;;;;;;;;;;;;;4796817;27;20295;-68
2023/01/03 06:31:20;;;;;;;;;;;;;;;;;;4794941;27;20414;-67
2023/01/03 06:33:46;;;;;;;;;;;;;;;;;;4783979;27;20291;-68
2023/01/03 06:36:12;;;;;;;;;;;;;;;;;;4783856;27;20287;-68
2023/01/03 06:38:38;;;;;;;;;;;;;;;;;;4781809;27;20692;-68
2023/01/03 06:41:04;;;;;;;;;;;;;;;;;;4778914;27;20311;-68
2023/01/03 06:43:30;;;;;;;;;;;;;;;;;;4780191;27;20754;-68
2023/01/03 06:54:10;;;;;;;;;;;;;;;;;;4780893;27;20317;-67
2023/01/03 06:56:36;;;;;;;;;;;;;;;;;;4772734;27;20278;-68
2023/01/03 06:59:02;;;;;;;;;;;;;;;;;;4778457;27;20229;-68
2023/01/03 07:01:28;;;;;;;;;;;;;;;;;;4777713;27;20345;-68
2023/01/03 07:03:54;;;;;;;;;;;;;;;;;;4778611;27;20330;-68
2023/01/03 07:06:20;;;;;;;;;;;;;;;;;;4775262;27;20287;-68
2023/01/03 07:08:46;;;;;;;;;;;;;;;;;;4775792;27;20617;-68
2023/01/03 07:11:11;;;;;;;;;;;;;;;;;;4775916;27;20272;-67
2023/01/03 07:16:22;;;;;;;;;;;;;;;;;;4776346;27;20359;-68
2023/01/03 07:18:49;;;;;;;;;;;;;;;;;;4771637;27;20757;-66
2023/01/03 07:21:14;;;;;;;;;;;;;;;;;;4755193;27;20825;-67
2023/01/03 07:23:40;;;;;;;;;;;;;;;;;;4761430;27;20272;-67
2023/01/03 07:26:06;;;;;;;;;;;;;;;;;;4762588;27;20350;-66
2023/01/03 07:28:32;;;;;;;;;;;;;;;;;;4783965;27;20269;-60
2023/01/03 07:30:58;;;;;;;;;;;;;;;;;;4768996;27;20756;-60
2023/01/03 07:33:24;;;;;;;;;;;;;;;;;;4764898;27;20301;-65
2023/01/03 07:35:50;;;;;;;;;;;;;;;;;;4759929;27;21191;-65
2023/01/03 07:38:16;;;;;;;;;;;;;;;;;;4762064;27;20264;-65
2023/01/03 07:40:42;;;;;;;;;;;;;;;;;;4784824;27;20326;-64
2023/01/03 07:45:52;;;;;;;;;;;;;;;;;;4782563;27;20325;-64
2023/01/03 07:48:18;;;;;;;;;;;;;;;;;;4787727;27;20293;-65
2023/01/03 07:50:44;;;;;;;;;;;;;;;;;;4788708;27;20817;-65
2023/01/03 07:53:15;;;;;;;;;;;;;;;;;;4769224;27;20443;-65
2023/01/03 07:55:41;;;;;;;;;;;;;;;;;;4759023;27;20324;-65
2023/01/03 07:58:07;;;;;;;;;;;;;;;;;;4742719;27;20314;-64
2023/01/03 08:00:33;;;;;;;;;;;;;;;;;;4760001;27;20304;-65
2023/01/03 08:02:58;;;;;;;;;;;;;;;;;;4762009;27;20355;-64
2023/01/03 08:05:24;;;;;;;;;;;;;;;;;;4764656;27;20277;-65
2023/01/03 08:07:50;;;;;;;;;;;;;;;;;;4764369;27;20283;-64
2023/01/03 08:13:16;;;;;;;;;;;;;;;;;;4765505;27;21080;-64
2023/01/03 08:15:42;;;;;;;;;;;;;;;;;;4762630;27;20983;-65
2023/01/03 08:18:08;;;;;;;;;;;;;;;;;;4754946;27;20706;-65
2023/01/03 08:20:34;;;;;;;;;;;;;;;;;;4760516;27;20310;-65
2023/01/03 08:23:00;;;;;;;;;;;;;;;;;;4754994;27;20224;-65
2023/01/03 08:25:26;;;;;;;;;;;;;;;;;;4743971;27;20389;-65
2023/01/03 08:27:51;;;;;;;;;;;;;;;;;;4759908;27;20765;-63
2023/01/03 08:30:17;;;;;;;;;;;;;;;;;;4761682;27;20275;-64
2023/01/03 08:32:43;;;;;;;;;;;;;;;;;;4756380;27;20295;-63
2023/01/03 08:35:10;;;;;;;;;;;;;;;;;;4746709;27;20812;-63
2023/01/03 08:37:35;;;;;;;;;;;;;;;;;;4755863;27;20333;-65
2023/01/03 08:40:01;;;;;;;;;;;;;;;;;;4764446;27;20241;-64
2023/01/03 08:42:27;;;;;;;;;;;;;;;;;;4756925;27;20654;-65
2023/01/03 08:44:53;;;;;;;;;;;;;;;;;;4758560;27;20287;-65
2023/01/03 08:47:19;;;;;;;;;;;;;;;;;;4757335;27;20291;-64
2023/01/03 08:49:45;;;;;;;;;;;;;;;;;;4757342;27;20249;-65
2023/01/03 08:52:11;;;;;;;;;;;;;;;;;;4759403;27;20267;-65
2023/01/03 08:54:38;;;;;;;;;;;;;;;;;;4759470;27;20292;-66
2023/01/03 08:57:04;;;;;;;;;;;;;;;;;;4763055;27;20326;-65
2023/01/03 08:59:30;;;;;;;;;;;;;;;;;;4756860;27;20294;-64
2023/01/03 09:01:56;;;;;;;;;;;;;;;;;;4760972;27;20899;-63
2023/01/03 09:04:22;;;;;;;;;;;;;;;;;;4761342;27;20298;-64
2023/01/03 09:06:48;;;;;;;;;;;;;;;;;;4762021;27;20282;-64
2023/01/03 09:09:14;;;;;;;;;;;;;;;;;;4751033;27;20304;-64
2023/01/03 09:11:39;;;;;;;;;;;;;;;;;;4763735;27;20285;-62
2023/01/03 09:14:05;;;;;;;;;;;;;;;;;;4757747;27;20303;-65
2023/01/03 09:16:31;;;;;;;;;;;;;;;;;;4762480;27;20243;-64
2023/01/03 09:18:57;;;;;;;;;;;;;;;;;;4754872;27;20347;-62
2023/01/03 09:21:23;;;;;;;;;;;;;;;;;;4763159;27;20231;-64
2023/01/03 09:23:49;;;;;;;;;;;;;;;;;;4766204;27;20241;-65
2023/01/03 09:26:15;;;;;;;;;;;;;;;;;;4762038;27;20238;-65
2023/01/03 09:28:41;;;;;;;;;;;;;;;;;;4763133;27;20257;-64
2023/01/03 09:31:06;;;;;;;;;;;;;;;;;;4763469;27;20239;-65
2023/01/03 09:33:33;;;;;;;;;;;;;;;;;;4751320;27;20253;-65
2023/01/03 09:35:58;;;;;;;;;;;;;;;;;;4749779;27;20418;-64
2023/01/03 09:38:25;;;;;;;;;;;;;;;;;;4752529;27;20338;-65
2023/01/03 09:40:51;;;;;;;;;;;;;;;;;;4750052;27;20236;-65
2023/01/03 09:43:17;;;;;;;;;;;;;;;;;;4754605;27;20245;-65
2023/01/03 09:45:43;;;;;;;;;;;;;;;;;;4749325;27;20235;-64
2023/01/03 09:48:08;;;;;;;;;;;;;;;;;;4752799;27;20760;-65
2023/01/03 09:50:35;;;;;;;;;;;;;;;;;;4745783;27;20238;-65
2023/01/03 10:04:04;;;;;;;;;;;;;;;;;;4745341;27;20426;-65
2023/01/03 10:06:30;;;;;;;;;;;;;;;;;;4752729;27;20293;-65
2023/01/03 10:08:55;;;;;;;;;;;;;;;;;;4748679;27;20286;-66
2023/01/03 10:11:21;;;;;;;;;;;;;;;;;;4753539;27;20420;-65
2023/01/03 10:13:47;;;;;;;;;;;;;;;;;;4757063;27;20279;-65
2023/01/03 10:16:13;;;;;;;;;;;;;;;;;;4760904;27;20352;-64
2023/01/03 10:18:39;;;;;;;;;;;;;;;;;;4760937;27;20256;-65
2023/01/03 10:21:05;;;;;;;;;;;;;;;;;;4764362;27;20304;-64
2023/01/03 10:23:31;;;;;;;;;;;;;;;;;;4755557;27;20285;-63
2023/01/03 10:25:57;;;;;;;;;;;;;;;;;;4758239;27;20830;-64
2023/01/03 10:28:23;;;;;;;;;;;;;;;;;;4751995;27;20404;-63
2023/01/03 10:30:49;;;;;;;;;;;;;;;;;;4757400;27;20258;-65
2023/01/03 10:33:14;;;;;;;;;;;;;;;;;;4755003;27;20801;-64
2023/01/03 10:35:40;;;;;;;;;;;;;;;;;;4753511;27;20301;-65
2023/01/03 10:38:06;;;;;;;;;;;;;;;;;;4756535;27;20800;-64
2023/01/03 10:40:32;;;;;;;;;;;;;;;;;;4755232;27;20243;-64
2023/01/03 10:42:58;;;;;;;;;;;;;;;;;;4757278;27;20666;-64
2023/01/03 10:45:24;;;;;;;;;;;;;;;;;;4756589;27;20238;-65
2023/01/03 10:47:50;;;;;;;;;;;;;;;;;;4754727;27;20916;-65
2023/01/03 10:50:16;;;;;;;;;;;;;;;;;;4754259;27;20269;-66
2023/01/03 10:52:41;;;;;;;;;;;;;;;;;;4761007;27;20771;-66
2023/01/03 10:55:07;;;;;;;;;;;;;;;;;;4757872;27;20323;-65
2023/01/03 10:57:33;;;;;;;;;;;;;;;;;;4761064;27;20236;-65
2023/01/03 10:59:59;;;;;;;;;;;;;;;;;;4750917;27;20297;-65
2023/01/03 11:02:25;;;;;;;;;;;;;;;;;;4754915;27;20408;-66
2023/01/03 11:04:51;;;;;;;;;;;;;;;;;;4752298;27;20253;-65
2023/01/03 11:07:17;;;;;;;;;;;;;;;;;;4755477;27;20249;-64
2023/01/03 11:09:43;;;;;;;;;;;;;;;;;;4757248;27;20363;-65
2023/01/03 11:12:08;;;;;;;;;;;;;;;;;;4752288;27;20327;-65
2023/01/03 11:14:34;;;;;;;;;;;;;;;;;;4750729;27;20281;-63
2023/01/03 11:17:00;;;;;;;;;;;;;;;;;;4752315;27;20739;-66
2023/01/03 11:19:27;;;;;;;;;;;;;;;;;;4754992;27;20233;-66
2023/01/03 11:21:53;;;;;;;;;;;;;;;;;;4757406;27;20348;-65
2023/01/03 11:24:18;;;;;;;;;;;;;;;;;;4756568;27;20297;-65
2023/01/03 11:26:44;;;;;;;;;;;;;;;;;;4753406;27;20281;-64
2023/01/03 11:29:10;;;;;;;;;;;;;;;;;;4755969;27;20247;-65
2023/01/03 11:31:38;;;;;;;;;;;;;;;;;;4755346;27;20333;-65
2023/01/03 11:34:04;;;;;;;;;;;;;;;;;;4758032;27;20788;-65
2023/01/03 11:36:30;;;;;;;;;;;;;;;;;;4752520;27;20288;-63
2023/01/03 11:38:56;;;;;;;;;;;;;;;;;;4751893;27;20284;-65
2023/01/03 11:41:22;;;;;;;;;;;;;;;;;;4754412;27;20288;-65
2023/01/03 11:43:48;;;;;;;;;;;;;;;;;;4758500;27;20250;-63
2023/01/03 11:46:14;;;;;;;;;;;;;;;;;;4756500;27;20398;-62
2023/01/03 11:48:40;;;;;;;;;;;;;;;;;;4757644;27;20761;-64
2023/01/03 11:51:06;;;;;;;;;;;;;;;;;;4753450;27;20248;-64
2023/01/03 11:53:32;;;;;;;;;;;;;;;;;;4755002;27;20835;-64
2023/01/03 11:55:57;;;;;;;;;;;;;;;;;;4758552;27;20252;-62
2023/01/03 11:58:23;;;;;;;;;;;;;;;;;;4758830;27;20285;-64
2023/01/03 12:00:49;;;;;;;;;;;;;;;;;;4753324;27;20760;-64
2023/01/03 12:03:15;;;;;;;;;;;;;;;;;;4748193;27;20351;-64
2023/01/03 12:05:41;;;;;;;;;;;;;;;;;;4755850;27;20402;-64
2023/01/03 12:08:07;;;;;;;;;;;;;;;;;;4749095;27;20736;-64
2023/01/03 12:10:33;;;;;;;;;;;;;;;;;;4752934;27;20296;-64
2023/01/03 12:12:59;;;;;;;;;;;;;;;;;;4749846;27;20246;-64
2023/01/03 12:15:25;;;;;;;;;;;;;;;;;;4758334;27;20709;-64
2023/01/03 12:17:51;;;;;;;;;;;;;;;;;;4756490;27;20301;-65
2023/01/03 12:20:17;;;;;;;;;;;;;;;;;;4764476;27;20418;-64
2023/01/03 12:22:43;;;;;;;;;;;;;;;;;;4754878;27;20268;-65
2023/01/03 12:25:09;;;;;;;;;;;;;;;;;;4757039;27;20265;-64
2023/01/03 12:27:35;;;;;;;;;;;;;;;;;;4745864;27;20290;-65
2023/01/03 12:30:00;;;;;;;;;;;;;;;;;;4759187;27;20246;-65
2023/01/03 12:32:26;;;;;;;;;;;;;;;;;;4755461;27;20985;-64
2023/01/03 12:34:52;;;;;;;;;;;;;;;;;;4757561;27;20283;-65
2023/01/03 12:37:18;;;;;;;;;;;;;;;;;;4755973;27;20693;-63
2023/01/03 12:39:44;;;;;;;;;;;;;;;;;;4753929;27;20343;-64
2023/01/03 12:42:10;;;;;;;;;;;;;;;;;;4757864;27;20720;-64
2023/01/03 12:44:36;;;;;;;;;;;;;;;;;;4750777;27;20297;-65
2023/01/03 12:47:02;;;;;;;;;;;;;;;;;;4755113;27;20735;-65
2023/01/03 12:49:30;;;;;;;;;;;;;;;;;;4753150;27;20306;-64
2023/01/03 12:51:58;;;;;;;;;;;;;;;;;;4762488;27;20270;-62
2023/01/03 12:54:24;;;;;;;;;;;;;;;;;;4762149;27;20236;-62
2023/01/03 12:56:50;;;;;;;;;;;;;;;;;;4765319;27;20698;-64
2023/01/03 12:59:16;;;;;;;;;;;;;;;;;;4759731;27;20294;-63
2023/01/03 13:01:42;;;;;;;;;;;;;;;;;;4763013;27;20306;-64
2023/01/03 13:04:08;;;;;;;;;;;;;;;;;;4759178;27;20279;-64
2023/01/03 13:06:34;;;;;;;;;;;;;;;;;;4755516;27;20256;-65
2023/01/03 13:09:00;;;;;;;;;;;;;;;;;;4749571;27;20294;-64
2023/01/03 13:11:26;;;;;;;;;;;;;;;;;;4758499;27;20361;-65
2023/01/03 13:13:52;;;;;;;;;;;;;;;;;;4756209;27;20276;-65
2023/01/03 13:16:18;;;;;;;;;;;;;;;;;;4754402;27;20799;-64
2023/01/03 13:18:44;;;;;;;;;;;;;;;;;;4757484;27;20350;-66
2023/01/03 13:21:10;;;;;;;;;;;;;;;;;;4759256;27;20331;-65
2023/01/03 13:23:35;;;;;;;;;;;;;;;;;;4759221;27;20447;-65
2023/01/03 13:26:01;;;;;;;;;;;;;;;;;;4748485;27;20346;-64
2023/01/03 13:28:31;;;;;;;;;;;;;;;;;;4754431;27;20260;-64
2023/01/03 13:30:57;;;;;;;;;;;;;;;;;;4751717;27;20353;-64
2023/01/03 13:33:23;;;;;;;;;;;;;;;;;;4758343;27;20908;-63
2023/01/03 13:35:49;;;;;;;;;;;;;;;;;;4758199;27;20239;-62
2023/01/03 13:38:15;;;;;;;;;;;;;;;;;;4764646;27;20251;-63
2023/01/03 13:40:41;;;;;;;;;;;;;;;;;;4752594;27;20267;-64
2023/01/03 13:43:07;;;;;;;;;;;;;;;;;;4755121;27;20292;-63
2023/01/03 13:45:33;;;;;;;;;;;;;;;;;;4754659;27;20239;-64
2023/01/03 13:47:59;;;;;;;;;;;;;;;;;;4758410;27;20311;-65
2023/01/03 13:50:25;;;;;;;;;;;;;;;;;;4752816;27;20752;-64
2023/01/03 13:52:51;;;;;;;;;;;;;;;;;;4751170;27;20245;-64
2023/01/03 13:55:16;;;;;;;;;;;;;;;;;;4755387;27;20297;-64
2023/01/03 13:57:42;;;;;;;;;;;;;;;;;;4753170;27;20274;-65
2023/01/03 14:00:08;;;;;;;;;;;;;;;;;;4751774;27;20277;-64
2023/01/03 14:02:34;;;;;;;;;;;;;;;;;;4750189;27;20401;-65
2023/01/03 14:05:00;;;;;;;;;;;;;;;;;;4755411;27;21893;-64
2023/01/03 14:07:26;;;;;;;;;;;;;;;;;;4756207;27;20780;-64
2023/01/03 14:09:52;;;;;;;;;;;;;;;;;;4759546;27;20320;-65
2023/01/03 14:12:18;;;;;;;;;;;;;;;;;;4747690;27;20762;-62
2023/01/03 14:14:43;;;;;;;;;;;;;;;;;;4758342;27;20287;-64
2023/01/03 14:17:09;;;;;;;;;;;;;;;;;;4760965;27;20869;-65
2023/01/03 14:19:35;;;;;;;;;;;;;;;;;;4765859;27;20236;-65
2023/01/03 14:22:01;;;;;;;;;;;;;;;;;;4756905;27;20744;-65
2023/01/03 14:24:27;;;;;;;;;;;;;;;;;;4757245;27;20275;-64
2023/01/03 14:26:53;;;;;;;;;;;;;;;;;;4752060;27;20239;-65
2023/01/03 14:29:19;;;;;;;;;;;;;;;;;;4761333;27;20865;-65
2023/01/03 14:31:45;;;;;;;;;;;;;;;;;;4760997;27;20241;-64
2023/01/03 14:34:11;;;;;;;;;;;;;;;;;;4767547;27;20624;-64
2023/01/03 14:36:37;;;;;;;;;;;;;;;;;;4760842;27;20699;-65
2023/01/03 14:39:04;;;;;;;;;;;;;;;;;;4764651;27;20374;-65
2023/01/03 14:41:30;;;;;;;;;;;;;;;;;;4764960;27;20887;-64
2023/01/03 14:43:55;;;;;;;;;;;;;;;;;;4759823;27;20280;-65
2023/01/03 14:46:21;;;;;;;;;;;;;;;;;;4764703;27;20378;-64
2023/01/03 14:48:47;;;;;;;;;;;;;;;;;;4763504;27;20278;-69
2023/01/03 14:51:14;;;;;;;;;;;;;;;;;;4764245;27;20281;-62
2023/01/03 14:53:40;;;;;;;;;;;;;;;;;;4761580;27;20293;-63
2023/01/03 14:56:05;;;;;;;;;;;;;;;;;;4769385;27;20276;-64
2023/01/03 14:58:31;;;;;;;;;;;;;;;;;;4762618;27;20686;-63
2023/01/03 15:00:57;;;;;;;;;;;;;;;;;;4767086;27;20867;-64
2023/01/03 15:03:24;;;;;;;;;;;;;;;;;;4765488;27;20237;-64
2023/01/03 15:05:50;;;;;;;;;;;;;;;;;;4761216;27;20760;-64
2023/01/03 15:08:15;;;;;;;;;;;;;;;;;;4755947;27;20290;-63
2023/01/03 15:10:41;;;;;;;;;;;;;;;;;;4758852;27;20419;-63
2023/01/03 15:13:07;;;;;;;;;;;;;;;;;;4761951;27;20268;-63
2023/01/03 15:15:33;;;;;;;;;;;;;;;;;;4765310;27;20268;-64
2023/01/03 15:17:59;;;;;;;;;;;;;;;;;;4764515;27;21051;-64
2023/01/03 15:20:25;;;;;;;;;;;;;;;;;;4766538;27;20247;-65
2023/01/03 15:22:51;;;;;;;;;;;;;;;;;;4762111;27;20707;-64
2023/01/03 15:25:17;;;;;;;;;;;;;;;;;;4765708;27;20399;-63
2023/01/03 15:27:43;;;;;;;;;;;;;;;;;;4766085;27;20296;-65
2023/01/03 15:30:08;;;;;;;;;;;;;;;;;;4763090;27;20828;-62
2023/01/03 15:32:34;;;;;;;;;;;;;;;;;;4767991;27;20266;-64
2023/01/03 15:35:00;;;;;;;;;;;;;;;;;;4763038;27;20839;-63
2023/01/03 15:37:26;;;;;;;;;;;;;;;;;;4771301;27;20272;-63
2023/01/03 15:39:52;;;;;;;;;;;;;;;;;;4755845;27;20852;-64
2023/01/03 15:45:03;;;;;;;;;;;;;;;;;;4757541;27;20335;-64
2023/01/03 15:47:29;;;;;;;;;;;;;;;;;;4762209;27;20730;-64
2023/01/03 15:49:54;;;;;;;;;;;;;;;;;;4760816;27;20298;-62
2023/01/03 15:52:20;;;;;;;;;;;;;;;;;;4761839;27;20754;-63
2023/01/03 15:54:46;;;;;;;;;;;;;;;;;;4764072;27;20298;-64
2023/01/03 15:57:12;;;;;;;;;;;;;;;;;;4761154;27;20359;-63
2023/01/03 15:59:38;;;;;;;;;;;;;;;;;;4763687;27;20286;-63
2023/01/03 16:02:04;;;;;;;;;;;;;;;;;;4757904;27;20272;-64
2023/01/03 16:04:30;;;;;;;;;;;;;;;;;;4766702;27;21009;-64
2023/01/03 16:06:56;;;;;;;;;;;;;;;;;;4753634;27;20405;-64
2023/01/03 16:09:22;;;;;;;;;;;;;;;;;;4761488;27;20713;-65
2023/01/03 16:11:48;;;;;;;;;;;;;;;;;;4766046;27;20245;-64
2023/01/03 16:14:13;;;;;;;;;;;;;;;;;;4757917;27;20288;-63
2023/01/03 16:16:39;;;;;;;;;;;;;;;;;;4753839;27;20329;-65
2023/01/03 16:19:05;;;;;;;;;;;;;;;;;;4756556;27;20971;-65
2023/01/03 16:21:31;;;;;;;;;;;;;;;;;;4755641;27;20653;-64
2023/01/03 16:23:57;;;;;;;;;;;;;;;;;;4770827;27;20354;-65
2023/01/03 16:26:23;;;;;;;;;;;;;;;;;;4765403;27;20463;-65
2023/01/03 16:28:49;;;;;;;;;;;;;;;;;;4764711;27;20724;-64
2023/01/03 16:31:16;;;;;;;;;;;;;;;;;;4764718;27;20267;-65
2023/01/03 16:33:42;;;;;;;;;;;;;;;;;;4762576;27;20423;-65
2023/01/03 16:36:08;;;;;;;;;;;;;;;;;;4756266;27;20286;-65
2023/01/03 16:38:34;;;;;;;;;;;;;;;;;;4762811;27;20236;-65
2023/01/03 16:41:00;;;;;;;;;;;;;;;;;;4772423;27;20286;-64
2023/01/03 16:43:26;;;;;;;;;;;;;;;;;;4763703;27;20346;-64
2023/01/03 16:45:52;;;;;;;;;;;;;;;;;;4779658;27;20306;-65
2023/01/03 16:48:18;;;;;;;;;;;;;;;;;;4785189;27;20413;-63
2023/01/03 16:50:44;;;;;;;;;;;;;;;;;;4788104;27;20239;-64
2023/01/03 16:53:10;;;;;;;;;;;;;;;;;;4787654;27;20238;-64
2023/01/03 16:55:36;;;;;;;;;;;;;;;;;;4788440;27;20317;-65
2023/01/03 16:58:02;;;;;;;;;;;;;;;;;;4790820;27;20233;-65
2023/01/03 17:00:28;;;;;;;;;;;;;;;;;;4790885;27;20300;-65
2023/01/03 17:02:54;;;;;;;;;;;;;;;;;;4766958;27;20277;-64
2023/01/03 17:05:20;;;;;;;;;;;;;;;;;;4770306;27;20828;-64
2023/01/03 17:07:46;;;;;;;;;;;;;;;;;;4784189;27;20240;-65
2023/01/03 17:10:12;;;;;;;;;;;;;;;;;;4789542;27;20326;-63
2023/01/03 17:12:38;;;;;;;;;;;;;;;;;;4787036;27;20308;-65
2023/01/03 17:15:04;;;;;;;;;;;;;;;;;;4786422;27;20287;-64
2023/01/03 17:17:30;;;;;;;;;;;;;;;;;;4763580;27;20829;-64
2023/01/03 17:19:55;;;;;;;;;;;;;;;;;;4769684;27;20229;-64
2023/01/03 17:22:22;;;;;;;;;;;;;;;;;;4751112;27;20235;-64
2023/01/03 17:24:48;;;;;;;;;;;;;;;;;;4771625;27;20291;-63
2023/01/03 17:27:14;;;;;;;;;;;;;;;;;;4777795;27;20600;-63
2023/01/03 17:29:40;;;;;;;;;;;;;;;;;;4788479;27;20348;-65
2023/01/03 17:32:06;;;;;;;;;;;;;;;;;;4789583;27;20266;-64
2023/01/03 17:34:32;;;;;;;;;;;;;;;;;;4788977;27;20245;-64
2023/01/03 17:36:57;;;;;;;;;;;;;;;;;;4773562;27;20266;-64
2023/01/03 17:39:23;;;;;;;;;;;;;;;;;;4772782;27;20304;-65
2023/01/03 17:44:34;;;;;;;;;;;;;;;;;;4789627;27;20364;-65